Time;durP1;ratioP1;P1;durP2;ratioP2;P2;SDS_P1;SDS_P2;PMS_P1;PMS_P2;Temp;Humidity;BMP_temperature;BMP_pressure;BME280_temperature;BME280_humidity;BME280_pressure;Samples;Min_cycle;Max_cycle;Signal;HPM_P1;HPM_P2
2021/06/06 00:00:18;;;;;;;3.47;2.90;;;16.50;99.90;;;;;;5088905;28;20204;-56
2021/06/06 00:02:43;;;;;;;2.97;2.77;;;16.50;99.90;;;;;;5086134;28;20170;-59
2021/06/06 00:05:10;;;;;;;4.47;2.67;;;16.50;99.90;;;;;;5093685;28;20526;-57
2021/06/06 00:07:36;;;;;;;3.10;2.73;;;16.40;99.90;;;;;;5093539;28;20272;-60
2021/06/06 00:10:04;;;;;;;2.90;2.70;;;16.40;99.90;;;;;;5093398;28;20659;-52
2021/06/06 00:12:31;;;;;;;3.30;3.00;;;16.40;99.90;;;;;;5093484;28;20192;-59
2021/06/06 00:14:56;;;;;;;2.97;2.77;;;16.40;99.90;;;;;;5093577;28;20178;-53
2021/06/06 00:17:22;;;;;;;2.67;2.33;;;16.40;99.90;;;;;;5093349;28;20193;-57
2021/06/06 00:19:48;;;;;;;2.27;2.13;;;16.40;99.90;;;;;;5093402;28;20700;-55
2021/06/06 00:22:14;;;;;;;2.27;2.07;;;16.40;99.90;;;;;;5093186;28;20173;-59
2021/06/06 00:24:40;;;;;;;2.47;2.27;;;16.40;99.90;;;;;;5093336;28;20507;-60
2021/06/06 00:27:07;;;;;;;2.43;2.23;;;16.40;99.90;;;;;;5093420;28;20221;-54
2021/06/06 00:29:33;;;;;;;1.80;1.70;;;16.40;99.90;;;;;;5089557;28;20170;-56
2021/06/06 00:31:59;;;;;;;2.43;2.00;;;16.50;99.90;;;;;;5075309;28;20205;-56
2021/06/06 00:34:25;;;;;;;3.13;2.30;;;16.50;99.90;;;;;;5089001;28;20206;-53
2021/06/06 00:36:51;;;;;;;1.93;1.80;;;16.60;99.90;;;;;;5081961;28;20665;-59
2021/06/06 00:39:17;;;;;;;2.70;1.97;;;16.50;99.90;;;;;;5086656;28;20213;-56
2021/06/06 00:41:46;;;;;;;1.60;1.50;;;16.50;99.90;;;;;;5093077;28;20223;-56
2021/06/06 00:44:12;;;;;;;2.20;1.93;;;16.60;99.90;;;;;;5093203;28;20267;-53
2021/06/06 00:46:38;;;;;;;1.90;1.80;;;16.60;99.90;;;;;;5093081;28;20289;-54
2021/06/06 00:49:06;;;;;;;2.87;1.97;;;16.50;99.90;;;;;;5093214;28;20182;-55
2021/06/06 00:51:42;;;;;;;3.50;1.83;;;16.50;99.90;;;;;;5092938;28;20173;-59
2021/06/06 00:54:13;;;;;;;3.23;1.93;;;16.50;99.90;;;;;;5091451;28;20648;-54
2021/06/06 00:56:39;;;;;;;1.90;1.80;;;16.50;99.90;;;;;;5093202;28;20193;-58
2021/06/06 00:59:06;;;;;;;4.40;2.30;;;16.50;99.90;;;;;;5093328;28;20217;-57
2021/06/06 01:01:31;;;;;;;2.10;2.00;;;16.50;99.90;;;;;;5093141;28;20214;-51
2021/06/06 01:03:59;;;;;;;2.00;1.90;;;16.50;99.90;;;;;;5092614;28;20289;-55
2021/06/06 01:06:41;;;;;;;2.17;2.00;;;16.40;99.90;;;;;;5094205;28;20189;-54
2021/06/06 01:09:09;;;;;;;2.23;2.07;;;16.30;99.90;;;;;;5095418;28;20185;-54
2021/06/06 01:11:40;;;;;;;2.90;2.00;;;16.30;99.90;;;;;;5094525;28;20170;-60
2021/06/06 01:14:12;;;;;;;2.13;2.03;;;16.30;99.90;;;;;;5095320;28;20541;-57
2021/06/06 01:16:57;;;;;;;2.30;2.10;;;16.30;99.90;;;;;;5095334;28;20249;-54
2021/06/06 01:19:32;;;;;;;2.30;2.10;;;16.40;99.90;;;;;;5096706;28;20200;-54
2021/06/06 01:22:40;;;;;;;2.30;2.10;;;16.40;99.90;;;;;;5097445;28;20231;-58
2021/06/06 01:25:06;;;;;;;2.60;2.40;;;16.30;99.90;;;;;;5097685;28;20188;-57
2021/06/06 01:27:36;;;;;;;2.80;2.10;;;16.30;99.90;;;;;;5097470;28;20190;-56
2021/06/06 01:30:37;;;;;;;2.70;1.90;;;16.30;99.90;;;;;;5097472;28;20243;-59
2021/06/06 01:33:11;;;;;;;2.03;1.93;;;16.40;99.90;;;;;;5054515;28;20226;-54
2021/06/06 01:35:57;;;;;;;3.37;2.33;;;16.50;99.90;;;;;;5054673;28;20768;-58
2021/06/06 01:38:31;;;;;;;2.30;1.87;;;16.50;99.90;;;;;;5054650;28;20210;-54
2021/06/06 01:41:00;;;;;;;2.60;2.40;;;16.60;99.90;;;;;;5054827;28;20175;-56
2021/06/06 01:43:34;;;;;;;2.40;2.20;;;16.60;99.90;;;;;;5054815;28;20183;-56
2021/06/06 01:46:10;;;;;;;2.67;2.20;;;16.60;99.90;;;;;;5054727;28;20175;-53
2021/06/06 01:48:38;;;;;;;2.20;2.00;;;16.70;99.90;;;;;;5054696;28;20179;-54
2021/06/06 01:51:15;;;;;;;3.67;2.00;;;16.80;99.90;;;;;;5037870;28;20298;-58
2021/06/06 01:53:43;;;;;;;3.60;2.50;;;16.90;99.90;;;;;;5054652;28;20179;-54
2021/06/06 01:56:10;;;;;;;2.03;1.90;;;16.90;99.90;;;;;;5054356;28;20227;-58
2021/06/06 01:58:37;;;;;;;2.20;2.00;;;16.80;99.90;;;;;;5054628;28;20646;-58
2021/06/06 02:01:16;;;;;;;2.10;1.90;;;16.90;99.90;;;;;;5054331;28;20182;-55
2021/06/06 02:03:43;;;;;;;2.70;2.00;;;17.00;99.90;;;;;;5054585;28;20273;-60
2021/06/06 02:06:12;;;;;;;2.80;2.23;;;17.00;99.90;;;;;;5054371;28;20659;-57
2021/06/06 02:08:41;;;;;;;2.67;2.43;;;17.00;99.90;;;;;;5076646;28;20268;-54
2021/06/06 02:11:11;;;;;;;2.33;2.13;;;16.90;99.90;;;;;;5096355;28;20604;-54
2021/06/06 02:13:38;;;;;;;3.73;2.57;;;16.90;99.90;;;;;;5096732;28;20537;-54
2021/06/06 02:16:05;;;;;;;3.73;2.40;;;16.80;99.90;;;;;;5095865;28;20595;-57
2021/06/06 02:18:32;;;;;;;3.13;2.60;;;16.60;99.90;;;;;;5096830;28;20216;-57
2021/06/06 02:20:58;;;;;;;2.50;2.30;;;16.60;99.90;;;;;;5096227;28;20248;-57
2021/06/06 02:23:26;;;;;;;2.80;2.60;;;16.50;99.90;;;;;;5096387;28;20170;-59
2021/06/06 02:26:14;;;;;;;2.20;2.10;;;16.50;99.90;;;;;;5096551;28;20223;-54
2021/06/06 02:29:21;;;;;;;2.87;2.60;;;16.50;99.90;;;;;;5096429;28;20170;-54
2021/06/06 02:32:18;;;;;;;4.77;2.70;;;16.50;99.90;;;;;;5075441;28;20246;-59
2021/06/06 02:35:03;;;;;;;3.63;2.67;;;16.50;99.90;;;;;;5093974;28;20181;-55
2021/06/06 02:37:44;;;;;;;2.27;2.07;;;16.40;99.90;;;;;;5094772;28;20273;-59
2021/06/06 02:40:21;;;;;;;2.63;2.43;;;16.50;99.90;;;;;;5096121;28;20284;-60
2021/06/06 02:42:49;;;;;;;4.63;2.50;;;16.50;99.90;;;;;;5095821;28;20526;-52
2021/06/06 02:45:28;;;;;;;2.83;2.63;;;16.50;99.90;;;;;;5096057;28;20173;-54
2021/06/06 02:47:59;;;;;;;2.67;2.40;;;16.50;99.90;;;;;;5096053;28;20190;-59
2021/06/06 02:50:28;;;;;;;3.93;2.40;;;16.50;99.90;;;;;;5096065;28;20640;-56
2021/06/06 02:53:20;;;;;;;2.67;2.47;;;16.40;99.90;;;;;;5095832;28;20257;-54
2021/06/06 02:55:53;;;;;;;2.60;2.40;;;16.40;99.90;;;;;;5095894;28;20556;-56
2021/06/06 02:58:39;;;;;;;2.90;2.70;;;16.40;99.90;;;;;;5095717;28;20297;-54
2021/06/06 03:01:14;;;;;;;2.90;2.63;;;16.30;99.90;;;;;;5095681;28;20219;-59
2021/06/06 03:03:42;;;;;;;4.50;2.60;;;16.30;99.90;;;;;;5095748;28;20180;-56
2021/06/06 03:06:22;;;;;;;4.00;2.50;;;16.30;99.90;;;;;;5095522;28;20170;-56
2021/06/06 03:08:48;;;;;;;3.07;2.80;;;16.20;99.90;;;;;;5095424;28;20166;-51
2021/06/06 03:11:15;;;;;;;2.73;2.53;;;16.20;99.90;;;;;;5095394;28;20184;-59
2021/06/06 03:13:46;;;;;;;3.33;3.03;;;16.20;99.90;;;;;;5095571;28;20174;-60
2021/06/06 03:16:15;;;;;;;3.20;2.90;;;16.20;99.90;;;;;;5095249;28;20533;-55
2021/06/06 03:18:44;;;;;;;3.23;2.90;;;16.20;99.90;;;;;;5095354;28;20194;-58
2021/06/06 03:21:23;;;;;;;2.80;2.60;;;16.30;99.90;;;;;;5095195;28;20218;-58
2021/06/06 03:23:55;;;;;;;2.77;2.57;;;16.40;99.90;;;;;;5095516;28;20176;-60
2021/06/06 03:26:21;;;;;;;3.20;2.90;;;16.50;99.90;;;;;;5095308;28;20236;-60
2021/06/06 03:28:47;;;;;;;3.03;2.80;;;16.50;99.90;;;;;;5094292;28;20616;-60
2021/06/06 03:31:20;;;;;;;4.13;3.10;;;16.50;99.90;;;;;;5095088;28;20170;-60
2021/06/06 03:33:58;;;;;;;3.43;3.17;;;16.30;99.90;;;;;;5095176;28;20176;-55
2021/06/06 03:36:27;;;;;;;3.93;2.83;;;16.30;99.90;;;;;;5094921;28;20197;-57
2021/06/06 03:38:54;;;;;;;3.10;2.80;;;16.30;99.90;;;;;;5094694;28;20549;-57
2021/06/06 03:41:22;;;;;;;4.13;3.20;;;16.50;99.90;;;;;;5094754;28;20272;-58
2021/06/06 03:43:47;;;;;;;4.63;2.90;;;16.50;99.90;;;;;;5094796;28;20181;-52
2021/06/06 03:46:13;;;;;;;5.07;3.17;;;16.60;99.90;;;;;;5094953;28;20170;-58
2021/06/06 03:48:40;;;;;;;3.17;2.87;;;16.60;99.90;;;;;;5094936;28;20223;-53
2021/06/06 03:51:05;;;;;;;2.90;2.70;;;16.70;99.90;;;;;;5094707;28;20182;-58
2021/06/06 03:53:31;;;;;;;3.30;3.00;;;16.60;99.90;;;;;;5094728;28;20176;-58
2021/06/06 03:55:57;;;;;;;3.70;3.40;;;16.60;99.90;;;;;;5094765;28;20272;-56
2021/06/06 03:58:23;;;;;;;3.87;2.87;;;16.50;99.90;;;;;;5094633;28;20251;-57
2021/06/06 04:00:51;;;;;;;4.10;3.70;;;16.50;99.90;;;;;;5094598;28;20335;-60
2021/06/06 04:03:18;;;;;;;3.50;3.20;;;16.50;99.90;;;;;;5094424;28;20193;-58
2021/06/06 04:05:44;;;;;;;5.97;3.93;;;16.40;99.90;;;;;;5094680;28;20169;-54
2021/06/06 04:08:10;;;;;;;4.20;3.40;;;16.40;99.90;;;;;;5094255;28;20235;-55
2021/06/06 04:10:37;;;;;;;4.10;3.70;;;16.40;99.90;;;;;;5094286;28;20626;-58
2021/06/06 04:13:03;;;;;;;3.90;3.40;;;16.50;99.90;;;;;;5094377;28;20174;-54
2021/06/06 04:15:30;;;;;;;3.80;3.50;;;16.40;99.90;;;;;;5094449;28;20165;-56
2021/06/06 04:17:55;;;;;;;4.43;3.57;;;16.50;99.90;;;;;;5094340;28;20201;-54
2021/06/06 04:20:23;;;;;;;4.70;3.43;;;16.50;99.90;;;;;;5094176;28;20566;-60
2021/06/06 04:22:48;;;;;;;4.10;3.70;;;16.70;99.90;;;;;;5094004;28;20630;-56
2021/06/06 04:25:21;;;;;;;4.10;3.27;;;16.60;99.90;;;;;;5094131;28;20216;-51
2021/06/06 04:27:47;;;;;;;4.37;3.97;;;16.50;99.90;;;;;;5094002;28;20202;-54
2021/06/06 04:30:13;;;;;;;4.67;3.23;;;16.50;99.90;;;;;;5094255;28;20181;-52
2021/06/06 04:32:39;;;;;;;4.13;3.80;;;16.50;99.90;;;;;;5094195;28;20188;-59
2021/06/06 04:35:05;;;;;;;3.73;3.43;;;16.50;99.90;;;;;;5094125;28;20170;-51
2021/06/06 04:37:31;;;;;;;3.67;3.37;;;16.50;99.90;;;;;;5093942;28;20218;-57
2021/06/06 04:39:56;;;;;;;4.60;3.60;;;16.50;99.90;;;;;;5093885;28;20201;-52
2021/06/06 04:42:22;;;;;;;4.33;3.87;;;16.50;99.90;;;;;;5093804;28;20188;-54
2021/06/06 04:44:49;;;;;;;4.97;4.47;;;16.50;99.90;;;;;;5093801;28;20660;-55
2021/06/06 04:47:15;;;;;;;4.07;3.67;;;16.50;99.90;;;;;;5094047;28;20204;-55
2021/06/06 04:49:42;;;;;;;4.17;3.77;;;16.50;99.90;;;;;;5093881;28;20177;-54
2021/06/06 04:52:09;;;;;;;4.00;3.60;;;16.40;99.90;;;;;;5093740;28;20178;-57
2021/06/06 04:54:35;;;;;;;4.57;3.70;;;16.40;99.90;;;;;;5094018;28;20185;-59
2021/06/06 04:57:01;;;;;;;4.70;4.07;;;16.40;99.90;;;;;;5093709;28;20296;-53
2021/06/06 04:59:27;;;;;;;4.50;4.10;;;16.40;99.90;;;;;;5093700;28;20729;-53
2021/06/06 05:01:52;;;;;;;4.17;3.77;;;16.50;99.90;;;;;;5093681;28;20312;-56
2021/06/06 05:04:18;;;;;;;3.93;3.57;;;16.50;99.90;;;;;;5093782;28;20526;-59
2021/06/06 05:06:44;;;;;;;4.40;4.00;;;16.40;99.90;;;;;;5093803;28;20694;-58
2021/06/06 05:09:09;;;;;;;4.43;4.03;;;16.40;99.90;;;;;;5093839;28;20228;-52
2021/06/06 05:11:35;;;;;;;4.10;3.80;;;16.40;99.90;;;;;;5093571;28;20170;-54
2021/06/06 05:14:02;;;;;;;4.67;4.27;;;16.30;99.90;;;;;;5093690;28;20778;-53
2021/06/06 05:16:27;;;;;;;5.17;4.30;;;16.20;99.90;;;;;;5093700;28;20251;-53
2021/06/06 05:18:55;;;;;;;5.83;4.83;;;16.30;99.90;;;;;;5093601;28;20209;-51
2021/06/06 05:21:22;;;;;;;4.60;4.20;;;16.30;99.90;;;;;;5093557;28;20182;-54
2021/06/06 05:23:47;;;;;;;5.50;5.00;;;16.30;99.90;;;;;;5093798;28;20174;-56
2021/06/06 05:26:13;;;;;;;5.30;4.90;;;16.30;99.90;;;;;;5093621;28;20231;-54
2021/06/06 05:28:39;;;;;;;6.03;5.00;;;16.30;99.90;;;;;;5093484;28;20256;-58
2021/06/06 05:31:06;;;;;;;6.37;5.10;;;16.30;99.90;;;;;;5093403;28;20178;-56
2021/06/06 05:33:32;;;;;;;7.63;6.30;;;16.30;99.90;;;;;;5093550;28;20178;-59
2021/06/06 05:35:57;;;;;;;6.33;5.83;;;16.20;99.90;;;;;;5093521;28;20182;-56
2021/06/06 05:38:26;;;;;;;6.20;5.60;;;16.30;99.90;;;;;;5093148;28;20292;-59
2021/06/06 05:40:52;;;;;;;6.13;5.53;;;16.30;99.90;;;;;;5093435;28;20652;-56
2021/06/06 05:43:18;;;;;;;7.43;6.80;;;16.30;99.90;;;;;;5093592;28;20185;-58
2021/06/06 05:45:48;;;;;;;7.60;6.00;;;16.40;99.90;;;;;;5093389;28;20189;-56
2021/06/06 05:48:14;;;;;;;6.87;5.70;;;16.40;99.90;;;;;;5093363;28;20265;-55
2021/06/06 05:50:43;;;;;;;7.00;6.40;;;16.40;99.90;;;;;;5091859;28;20186;-57
2021/06/06 05:53:08;;;;;;;6.10;5.60;;;16.40;99.90;;;;;;5096707;28;20166;-55
2021/06/06 05:55:35;;;;;;;7.07;6.47;;;16.30;99.90;;;;;;5095869;28;20265;-52
2021/06/06 05:58:01;;;;;;;7.47;6.30;;;16.30;99.90;;;;;;5096821;28;20248;-59
2021/06/06 06:00:31;;;;;;;7.57;6.87;;;16.20;99.90;;;;;;5097025;28;20530;-60
2021/06/06 06:02:57;;;;;;;7.00;6.40;;;16.30;99.90;;;;;;5095241;28;20626;-59
2021/06/06 06:05:22;;;;;;;6.80;6.10;;;16.30;99.90;;;;;;5096576;28;20181;-58
2021/06/06 06:07:48;;;;;;;7.03;6.43;;;16.40;99.90;;;;;;5096779;28;20727;-55
2021/06/06 06:10:18;;;;;;;7.07;6.37;;;16.40;99.90;;;;;;5097260;28;20213;-57
2021/06/06 06:12:44;;;;;;;7.13;6.53;;;16.40;99.90;;;;;;5096605;28;20182;-53
2021/06/06 06:15:11;;;;;;;6.03;5.53;;;16.30;99.90;;;;;;5096530;28;20189;-55
2021/06/06 06:17:36;;;;;;;6.70;6.10;;;16.30;99.90;;;;;;5096482;28;20523;-58
2021/06/06 06:20:06;;;;;;;5.97;5.47;;;16.30;99.90;;;;;;5096432;28;20692;-59
2021/06/06 06:22:31;;;;;;;6.67;5.97;;;16.40;99.90;;;;;;5096374;28;20255;-59
2021/06/06 06:24:57;;;;;;;7.03;6.30;;;16.50;99.90;;;;;;5096651;28;20170;-55
2021/06/06 06:27:22;;;;;;;7.77;7.07;;;16.50;99.90;;;;;;5096288;28;20602;-53
2021/06/06 06:29:48;;;;;;;6.80;6.20;;;16.50;99.90;;;;;;5096262;28;20182;-53
2021/06/06 06:32:14;;;;;;;7.87;7.10;;;16.60;99.90;;;;;;5096204;28;20174;-53
2021/06/06 06:34:40;;;;;;;6.90;6.20;;;16.60;99.90;;;;;;5096191;28;20181;-60
2021/06/06 06:37:07;;;;;;;7.80;7.10;;;16.70;99.90;;;;;;5095957;28;20263;-59
2021/06/06 06:39:32;;;;;;;7.67;6.97;;;16.70;99.90;;;;;;5096222;28;20251;-58
2021/06/06 06:41:58;;;;;;;7.70;6.47;;;16.60;99.90;;;;;;5094777;28;20182;-57
2021/06/06 06:44:23;;;;;;;7.53;6.93;;;16.60;99.90;;;;;;5095144;28;20178;-60
2021/06/06 06:46:49;;;;;;;7.40;6.70;;;16.50;99.90;;;;;;5095957;28;20185;-57
2021/06/06 06:49:14;;;;;;;7.07;6.47;;;16.50;99.90;;;;;;5094876;28;20177;-59
2021/06/06 06:51:40;;;;;;;7.37;6.70;;;16.40;99.90;;;;;;5095708;28;20174;-60
2021/06/06 06:54:06;;;;;;;7.83;7.07;;;16.40;99.90;;;;;;5095747;28;20170;-54
2021/06/06 06:56:32;;;;;;;7.93;7.20;;;16.40;99.90;;;;;;5095826;28;20197;-59
2021/06/06 06:58:58;;;;;;;6.47;5.87;;;16.40;99.90;;;;;;5095700;28;20205;-58
2021/06/06 07:01:24;;;;;;;7.50;6.80;;;16.30;99.90;;;;;;5095536;28;20169;-58
2021/06/06 07:03:50;;;;;;;6.90;6.30;;;16.30;99.90;;;;;;5095461;28;20158;-54
2021/06/06 07:06:16;;;;;;;6.13;5.63;;;16.40;99.90;;;;;;5095556;28;20177;-59
2021/06/06 07:08:44;;;;;;;6.03;5.53;;;16.40;99.90;;;;;;5095695;28;20208;-57
2021/06/06 07:11:12;;;;;;;6.10;5.60;;;16.40;99.90;;;;;;5095466;28;20180;-61
2021/06/06 07:13:38;;;;;;;7.60;6.90;;;16.40;99.90;;;;;;5095745;28;20239;-58
2021/06/06 07:16:05;;;;;;;5.47;4.97;;;16.40;99.90;;;;;;5095452;28;20637;-58
2021/06/06 07:18:31;;;;;;;4.07;3.77;;;16.40;99.90;;;;;;5095444;28;20225;-59
2021/06/06 07:21:01;;;;;;;3.10;2.90;;;16.30;99.90;;;;;;5095250;28;20206;-55
2021/06/06 07:23:28;;;;;;;2.90;2.70;;;16.10;99.90;;;;;;5095554;28;20180;-58
2021/06/06 07:25:56;;;;;;;2.70;2.50;;;16.10;99.90;;;;;;5095387;28;20178;-59
2021/06/06 07:28:24;;;;;;;3.43;2.93;;;16.00;99.90;;;;;;5095134;28;20198;-58
2021/06/06 07:30:53;;;;;;;2.83;2.50;;;15.90;99.90;;;;;;5095683;28;20315;-58
2021/06/06 07:33:24;;;;;;;2.73;2.53;;;15.90;99.90;;;;;;5095161;28;20640;-57
2021/06/06 07:35:52;;;;;;;2.70;2.50;;;15.90;99.90;;;;;;5095691;28;20263;-59
2021/06/06 07:38:19;;;;;;;2.80;2.50;;;15.90;99.90;;;;;;5094843;28;20278;-52
2021/06/06 07:40:45;;;;;;;2.73;2.53;;;15.90;99.90;;;;;;5095143;28;20185;-58
2021/06/06 07:43:11;;;;;;;2.23;2.13;;;16.00;99.90;;;;;;5094969;28;20162;-60
2021/06/06 07:45:37;;;;;;;2.47;2.27;;;16.00;99.90;;;;;;5095154;28;20161;-52
2021/06/06 07:48:04;;;;;;;4.40;2.57;;;16.00;99.90;;;;;;5094782;28;20197;-58
2021/06/06 07:50:34;;;;;;;2.13;2.03;;;16.00;99.90;;;;;;5095011;28;20721;-53
2021/06/06 07:53:00;;;;;;;1.80;1.70;;;16.00;99.90;;;;;;5094720;28;20166;-60
2021/06/06 07:55:27;;;;;;;2.20;2.10;;;16.00;99.90;;;;;;5094840;28;20719;-59
2021/06/06 07:57:52;;;;;;;1.80;1.70;;;16.00;99.90;;;;;;5094682;28;20197;-60
2021/06/06 08:00:26;;;;;;;2.10;1.90;;;16.00;99.90;;;;;;5094584;28;20202;-59
2021/06/06 08:02:51;;;;;;;2.00;1.90;;;16.00;99.90;;;;;;5094429;28;20177;-60
2021/06/06 08:05:18;;;;;;;1.73;1.63;;;15.90;99.90;;;;;;5094517;28;20200;-52
2021/06/06 08:07:44;;;;;;;2.13;1.90;;;16.00;99.90;;;;;;5094520;28;20230;-58
2021/06/06 08:10:11;;;;;;;2.20;1.83;;;16.00;99.90;;;;;;5094463;28;20649;-52
2021/06/06 08:12:37;;;;;;;1.70;1.60;;;16.00;99.90;;;;;;5094076;28;20642;-59
2021/06/06 08:15:05;;;;;;;1.20;1.20;;;16.00;99.90;;;;;;5094073;28;20170;-56
2021/06/06 08:17:30;;;;;;;2.00;1.43;;;16.10;99.90;;;;;;5094208;28;20202;-60
2021/06/06 08:19:56;;;;;;;1.37;1.27;;;16.10;99.90;;;;;;5094247;28;20591;-56
2021/06/06 08:22:22;;;;;;;2.03;1.50;;;16.20;99.90;;;;;;5094335;28;20170;-53
2021/06/06 08:24:47;;;;;;;1.80;1.13;;;16.20;99.90;;;;;;5094498;28;20663;-57
2021/06/06 08:27:13;;;;;;;1.33;1.23;;;16.30;99.90;;;;;;5094215;28;20185;-56
2021/06/06 08:29:41;;;;;;;1.30;1.20;;;16.90;99.90;;;;;;5094492;28;20177;-54
2021/06/06 08:32:07;;;;;;;0.83;0.83;;;16.50;99.90;;;;;;5094168;28;20185;-54
2021/06/06 08:34:32;;;;;;;0.90;0.90;;;16.60;99.90;;;;;;5094123;28;20614;-60
2021/06/06 08:36:58;;;;;;;0.90;0.90;;;16.60;99.90;;;;;;5094040;28;20724;-58
2021/06/06 08:39:30;;;;;;;1.10;1.00;;;16.70;99.90;;;;;;5093850;28;20697;-57
2021/06/06 08:42:02;;;;;;;1.03;1.00;;;16.70;99.90;;;;;;5094010;28;20657;-55
2021/06/06 08:44:31;;;;;;;0.87;0.77;;;16.70;99.90;;;;;;5093881;28;20205;-57
2021/06/06 08:47:09;;;;;;;0.87;0.80;;;16.70;99.90;;;;;;5093877;28;20263;-57
2021/06/06 08:49:45;;;;;;;1.17;0.90;;;16.70;99.90;;;;;;5094041;28;20223;-58
2021/06/06 08:52:49;;;;;;;0.97;0.90;;;16.80;99.90;;;;;;5093801;28;20178;-59
2021/06/06 08:55:29;;;;;;;0.80;0.80;;;16.80;99.90;;;;;;5051531;28;20597;-53
2021/06/06 08:58:22;;;;;;;0.70;0.60;;;16.70;99.90;;;;;;5051611;28;20281;-55
2021/06/06 09:00:52;;;;;;;0.80;0.80;;;16.70;99.90;;;;;;4992312;28;20197;-55
2021/06/06 09:03:25;;;;;;;0.63;0.60;;;16.80;99.90;;;;;;4992647;28;20272;-56
2021/06/06 09:06:00;;;;;;;0.80;0.57;;;16.90;99.90;;;;;;4992237;28;20602;-59
2021/06/06 09:08:29;;;;;;;1.43;0.77;;;16.90;99.90;;;;;;4992279;28;20184;-58
2021/06/06 09:10:59;;;;;;;1.00;0.70;;;16.90;99.90;;;;;;4992024;28;20185;-53
2021/06/06 09:13:30;;;;;;;0.70;0.70;;;16.90;99.90;;;;;;4992276;28;20642;-59
2021/06/06 09:16:05;;;;;;;0.80;0.80;;;17.00;99.90;;;;;;4992159;28;20205;-61
2021/06/06 09:18:30;;;;;;;0.83;0.83;;;17.10;99.90;;;;;;4992248;28;20255;-60
2021/06/06 09:21:12;;;;;;;0.80;0.80;;;17.20;99.90;;;;;;4992224;28;20174;-56
2021/06/06 09:23:39;;;;;;;0.93;0.73;;;17.30;99.90;;;;;;4992160;28;20192;-59
2021/06/06 09:26:20;;;;;;;0.73;0.73;;;17.70;99.90;;;;;;4992690;28;20726;-54
2021/06/06 09:29:03;;;;;;;1.40;1.07;;;17.30;99.90;;;;;;5008263;28;20578;-56
2021/06/06 09:31:29;;;;;;;0.80;0.80;;;17.30;99.90;;;;;;5035113;28;20189;-53
2021/06/06 09:33:54;;;;;;;0.60;0.60;;;17.30;99.90;;;;;;5035161;28;20184;-55
2021/06/06 09:36:23;;;;;;;1.03;0.77;;;17.30;99.90;;;;;;5035105;28;20206;-54
2021/06/06 09:38:53;;;;;;;0.80;0.80;;;17.40;99.90;;;;;;5090813;28;20692;-59
2021/06/06 09:41:32;;;;;;;0.70;0.70;;;17.50;99.90;;;;;;5097244;28;20166;-60
2021/06/06 09:44:03;;;;;;;0.73;0.50;;;17.60;99.90;;;;;;5097436;28;20172;-61
2021/06/06 09:46:40;;;;;;;1.40;0.70;;;17.60;99.90;;;;;;5097418;28;20194;-58
2021/06/06 09:49:22;;;;;;;2.40;0.87;;;17.70;99.90;;;;;;5097073;28;20176;-59
2021/06/06 09:51:49;;;;;;;0.70;0.70;;;17.80;99.90;;;;;;5096785;28;20534;-59
2021/06/06 09:54:25;;;;;;;1.07;0.60;;;18.00;99.90;;;;;;5097184;28;20177;-57
2021/06/06 09:56:53;;;;;;;0.50;0.50;;;18.30;99.90;;;;;;5096947;28;20193;-60
2021/06/06 09:59:29;;;;;;;1.00;0.60;;;18.50;99.90;;;;;;5096908;28;20281;-53
2021/06/06 10:02:13;;;;;;;1.03;0.70;;;18.50;99.90;;;;;;5096617;28;20630;-56
2021/06/06 10:04:41;;;;;;;1.23;0.60;;;18.40;99.90;;;;;;5096887;28;20169;-56
2021/06/06 10:07:14;;;;;;;0.93;0.93;;;18.20;99.90;;;;;;5096649;28;20192;-61
2021/06/06 10:09:51;;;;;;;2.27;0.87;;;18.10;99.90;;;;;;5096504;28;20537;-58
2021/06/06 10:12:39;;;;;;;0.90;0.90;;;18.10;99.90;;;;;;5096451;28;20552;-60
2021/06/06 10:15:09;;;;;;;1.53;1.43;;;18.30;99.90;;;;;;5096843;28;20178;-55
2021/06/06 10:17:50;;;;;;;3.00;1.87;;;18.30;99.90;;;;;;5096330;28;20566;-60
2021/06/06 10:20:24;;;;;;;1.57;1.47;;;18.40;99.90;;;;;;5096362;28;20205;-54
2021/06/06 10:23:14;;;;;;;2.20;2.10;;;18.60;99.90;;;;;;5096343;28;20563;-56
2021/06/06 10:25:57;;;;;;;1.90;1.80;;;18.80;99.90;;;;;;5088828;28;20247;-55
2021/06/06 10:28:36;;;;;;;2.10;1.97;;;18.90;99.90;;;;;;5096398;28;20186;-61
2021/06/06 10:31:05;;;;;;;1.80;1.70;;;18.90;99.90;;;;;;5096795;28;20253;-60
2021/06/06 10:33:38;;;;;;;2.00;1.70;;;18.80;99.90;;;;;;5096189;28;20530;-61
2021/06/06 10:36:05;;;;;;;2.27;2.17;;;18.90;99.90;;;;;;5096267;28;20713;-55
2021/06/06 10:38:33;;;;;;;1.80;1.70;;;18.90;99.90;;;;;;5095563;28;20301;-54
2021/06/06 10:41:12;;;;;;;2.23;1.93;;;18.80;99.90;;;;;;5096157;28;20231;-57
2021/06/06 10:43:44;;;;;;;2.43;1.63;;;19.00;99.90;;;;;;5096308;28;20209;-58
2021/06/06 10:46:44;;;;;;;1.80;1.70;;;18.90;99.90;;;;;;5096120;28;20174;-58
2021/06/06 10:49:18;;;;;;;1.90;1.80;;;18.80;99.90;;;;;;5096097;28;20257;-55
2021/06/06 10:51:50;;;;;;;2.20;1.80;;;18.80;99.90;;;;;;5096059;28;20173;-60
2021/06/06 10:54:46;;;;;;;1.90;1.80;;;19.20;99.90;;;;;;5096078;28;20526;-56
2021/06/06 10:57:36;;;;;;;1.73;1.50;;;18.70;99.90;;;;;;5094895;28;20202;-56
2021/06/06 11:00:02;;;;;;;1.50;1.40;;;18.70;99.90;;;;;;5096127;28;20208;-55
2021/06/06 11:02:30;;;;;;;1.40;1.40;;;18.80;99.90;;;;;;5095892;28;20257;-59
2021/06/06 11:04:58;;;;;;;1.63;1.37;;;18.90;99.90;;;;;;5095688;28;20244;-59
2021/06/06 11:07:30;;;;;;;1.63;1.53;;;19.00;99.90;;;;;;5095499;28;20588;-60
2021/06/06 11:10:04;;;;;;;1.83;1.50;;;19.10;99.90;;;;;;5095838;28;20198;-56
2021/06/06 11:12:35;;;;;;;2.20;2.10;;;19.20;99.90;;;;;;5095476;28;20526;-56
2021/06/06 11:15:04;;;;;;;1.90;1.80;;;19.20;99.90;;;;;;5095601;28;20257;-60
2021/06/06 11:17:32;;;;;;;1.43;1.30;;;19.00;99.90;;;;;;5095261;28;20236;-60
2021/06/06 11:20:14;;;;;;;1.90;1.50;;;19.20;99.90;;;;;;5095517;28;20209;-59
2021/06/06 11:22:43;;;;;;;1.63;1.53;;;19.40;99.90;;;;;;5095475;28;20174;-58
2021/06/06 11:25:37;;;;;;;1.53;1.43;;;19.50;99.90;;;;;;5095467;28;20174;-60
2021/06/06 11:28:20;;;;;;;1.30;1.30;;;19.60;99.90;;;;;;5095433;28;20255;-60
2021/06/06 11:30:46;;;;;;;1.30;1.20;;;19.70;99.90;;;;;;5095506;28;20173;-60
2021/06/06 11:33:14;;;;;;;1.13;1.13;;;19.70;99.90;;;;;;5095000;28;20166;-57
2021/06/06 11:35:39;;;;;;;1.73;1.53;;;19.80;99.90;;;;;;5095483;28;20193;-61
2021/06/06 11:38:27;;;;;;;1.50;1.40;;;19.70;99.90;;;;;;5095109;28;20228;-57
2021/06/06 11:41:07;;;;;;;1.40;1.30;;;19.60;99.90;;;;;;5094879;28;20177;-57
2021/06/06 11:43:55;;;;;;;1.50;1.23;;;19.80;99.90;;;;;;5095399;28;20583;-58
2021/06/06 11:46:30;;;;;;;1.30;1.30;;;19.90;99.90;;;;;;5094647;28;20221;-58
2021/06/06 11:49:26;;;;;;;1.30;1.30;;;19.90;99.90;;;;;;5094311;28;20184;-60
2021/06/06 11:51:54;;;;;;;1.10;1.00;;;19.90;99.90;;;;;;5094993;28;20166;-60
2021/06/06 11:54:37;;;;;;;1.00;1.00;;;19.90;99.90;;;;;;5095019;28;20166;-59
2021/06/06 11:57:11;;;;;;;0.97;0.83;;;20.00;99.90;;;;;;5094931;28;20189;-58
2021/06/06 11:59:50;;;;;;;1.00;1.00;;;20.00;99.90;;;;;;5094668;28;20614;-60
2021/06/06 12:02:20;;;;;;;0.90;0.90;;;20.00;99.90;;;;;;5094533;28;20165;-59
2021/06/06 12:04:45;;;;;;;1.37;1.27;;;19.80;99.90;;;;;;5094755;28;20265;-54
2021/06/06 12:07:16;;;;;;;1.30;1.20;;;19.80;99.90;;;;;;5094459;28;20228;-58
2021/06/06 12:09:44;;;;;;;1.20;1.20;;;19.80;99.90;;;;;;5094634;28;20185;-56
2021/06/06 12:12:24;;;;;;;1.00;1.00;;;19.60;99.90;;;;;;5094377;28;20170;-57
2021/06/06 12:15:20;;;;;;;1.00;1.00;;;19.50;99.90;;;;;;5094365;28;20178;-54
2021/06/06 12:17:46;;;;;;;0.90;0.90;;;19.40;99.90;;;;;;5094433;28;20221;-59
2021/06/06 12:20:19;;;;;;;0.87;0.87;;;19.40;99.90;;;;;;5094147;28;20229;-59
2021/06/06 12:22:45;;;;;;;0.93;0.93;;;19.50;99.90;;;;;;5094189;28;20208;-57
2021/06/06 12:25:14;;;;;;;1.10;1.10;;;19.60;99.90;;;;;;5094384;28;20206;-58
2021/06/06 12:27:47;;;;;;;1.07;0.80;;;19.80;99.90;;;;;;5094226;28;20186;-61
2021/06/06 12:30:39;;;;;;;1.07;1.00;;;19.90;99.90;;;;;;5094478;28;20180;-59
2021/06/06 12:33:27;;;;;;;0.90;0.80;;;20.10;99.90;;;;;;5094101;28;20556;-59
2021/06/06 12:35:55;;;;;;;1.10;1.10;;;20.30;99.90;;;;;;5094043;28;20182;-57
2021/06/06 12:38:23;;;;;;;0.93;0.90;;;20.40;99.90;;;;;;5093969;28;20241;-59
2021/06/06 12:40:50;;;;;;;1.00;1.00;;;20.50;99.90;;;;;;5094259;28;20174;-56
2021/06/06 12:43:21;;;;;;;1.30;1.20;;;20.70;99.90;;;;;;5093830;28;20660;-59
2021/06/06 12:45:47;;;;;;;0.80;0.80;;;20.70;99.90;;;;;;5094275;28;20173;-59
2021/06/06 12:48:25;;;;;;;0.93;0.83;;;20.80;99.90;;;;;;5093931;28;20185;-59
2021/06/06 12:50:53;;;;;;;1.10;1.10;;;20.80;99.90;;;;;;5094238;28;20166;-60
2021/06/06 12:53:34;;;;;;;1.03;1.03;;;20.80;99.90;;;;;;5093967;28;20534;-58
2021/06/06 12:56:11;;;;;;;0.90;0.90;;;20.90;99.90;;;;;;5094082;28;20182;-61
2021/06/06 12:58:38;;;;;;;1.13;1.03;;;20.90;99.90;;;;;;5093750;28;20201;-57
2021/06/06 13:01:18;;;;;;;1.23;0.90;;;21.00;99.90;;;;;;5096037;28;20723;-60
2021/06/06 13:03:46;;;;;;;1.23;1.00;;;21.10;99.90;;;;;;5098327;28;20253;-56
2021/06/06 13:06:26;;;;;;;0.70;0.70;;;21.20;99.90;;;;;;5098165;28;20170;-54